Time;durP1;ratioP1;P1;durP2;ratioP2;P2;SDS_P1;SDS_P2;PMS_P1;PMS_P2;Temp;Humidity;BMP_temperature;BMP_pressure;BME280_temperature;BME280_humidity;BME280_pressure;Samples;Min_cycle;Max_cycle;Signal;HPM_P1;HPM_P2
2023/06/27 00:01:24;;;;;;;7.63;3.17;;;17.10;99.90;;;;;;4975758;28;20093;-47
2023/06/27 00:03:51;;;;;;;8.90;3.30;;;17.10;99.90;;;;;;4974650;28;20098;-49
2023/06/27 00:06:20;;;;;;;8.95;3.20;;;17.00;99.90;;;;;;4974458;28;20050;-48
2023/06/27 00:08:49;;;;;;;7.72;2.88;;;17.00;99.90;;;;;;4937961;28;20039;-51
2023/06/27 00:11:15;;;;;;;6.68;2.90;;;16.90;99.90;;;;;;4955201;28;20049;-46
2023/06/27 00:13:41;;;;;;;6.63;3.05;;;16.80;99.90;;;;;;4939610;28;20495;-46
2023/06/27 00:16:12;;;;;;;9.15;2.60;;;16.80;99.90;;;;;;4966163;28;20309;-47
2023/06/27 00:18:47;;;;;;;7.97;3.25;;;16.70;99.90;;;;;;4957755;28;20070;-50
2023/06/27 00:21:16;;;;;;;8.38;3.13;;;16.70;99.90;;;;;;4956651;28;20046;-46
2023/06/27 00:23:43;;;;;;;7.10;3.60;;;16.60;99.90;;;;;;4972772;28;20046;-47
2023/06/27 00:26:11;;;;;;;6.30;3.08;;;16.60;99.90;;;;;;4955021;28;20065;-50
2023/06/27 00:28:38;;;;;;;7.03;3.25;;;16.60;99.90;;;;;;4955212;28;20035;-50
2023/06/27 00:31:03;;;;;;;8.05;3.40;;;16.50;99.90;;;;;;4954917;28;20042;-48
2023/06/27 00:33:29;;;;;;;8.25;3.13;;;16.50;99.90;;;;;;4937691;28;20035;-47
2023/06/27 00:35:55;;;;;;;7.18;3.42;;;16.40;99.90;;;;;;4937477;28;20051;-50
2023/06/27 00:38:21;;;;;;;8.88;3.38;;;16.40;99.90;;;;;;4963420;28;20027;-50
2023/06/27 00:40:46;;;;;;;8.80;3.85;;;16.40;99.90;;;;;;4965458;28;20103;-48
2023/06/27 00:43:12;;;;;;;9.27;3.90;;;16.30;99.90;;;;;;4960209;28;20039;-50
2023/06/27 00:45:38;;;;;;;7.55;3.75;;;16.30;99.90;;;;;;4965031;28;20031;-50
2023/06/27 00:48:04;;;;;;;7.30;3.38;;;16.20;99.90;;;;;;4973252;28;20093;-51
2023/06/27 00:50:30;;;;;;;7.50;3.70;;;16.20;99.90;;;;;;4973563;28;20081;-47
2023/06/27 00:52:58;;;;;;;7.72;3.88;;;16.10;99.90;;;;;;4973704;28;20474;-50
2023/06/27 00:55:24;;;;;;;7.78;3.90;;;16.10;99.90;;;;;;4973624;28;20039;-48
2023/06/27 00:57:50;;;;;;;6.65;3.60;;;16.10;99.90;;;;;;4973791;28;20194;-50
2023/06/27 01:00:16;;;;;;;8.50;4.10;;;16.00;99.90;;;;;;4935990;28;20066;-45
2023/06/27 01:02:45;;;;;;;5.90;4.03;;;16.00;99.90;;;;;;4954340;28;20047;-48
2023/06/27 01:05:12;;;;;;;9.25;4.15;;;16.00;99.90;;;;;;4953940;28;20122;-51
2023/06/27 01:07:47;;;;;;;7.95;4.57;;;16.00;99.90;;;;;;4953971;28;20091;-50
2023/06/27 01:10:34;;;;;;;9.88;4.53;;;16.00;99.90;;;;;;4954046;28;20530;-50
2023/06/27 01:13:16;;;;;;;7.88;4.43;;;16.00;99.90;;;;;;4953997;28;20079;-47
2023/06/27 01:15:42;;;;;;;8.23;4.45;;;15.90;99.90;;;;;;4953932;28;20155;-50
2023/06/27 01:18:11;;;;;;;8.48;4.57;;;15.90;99.90;;;;;;4953701;28;20123;-46
2023/06/27 01:20:38;;;;;;;9.35;4.70;;;15.90;99.90;;;;;;4952613;28;20110;-46
2023/06/27 01:23:22;;;;;;;7.38;5.10;;;15.80;99.90;;;;;;4954005;28;20046;-49
2023/06/27 01:25:59;;;;;;;7.07;4.95;;;15.80;99.90;;;;;;4953746;28;20035;-46
2023/06/27 01:28:25;;;;;;;7.60;4.97;;;15.80;99.90;;;;;;4953835;28;20107;-47
2023/06/27 01:30:51;;;;;;;8.70;4.78;;;15.70;99.90;;;;;;4954161;28;20035;-47
2023/06/27 01:33:28;;;;;;;11.55;5.03;;;15.70;99.90;;;;;;4953679;28;20043;-49
2023/06/27 01:36:02;;;;;;;6.80;4.72;;;15.60;99.90;;;;;;4957022;28;20490;-49
2023/06/27 01:38:42;;;;;;;10.23;4.93;;;15.60;99.90;;;;;;4970264;28;20493;-48
2023/06/27 01:41:12;;;;;;;8.13;5.40;;;15.60;99.90;;;;;;4973055;28;20050;-46
2023/06/27 01:43:40;;;;;;;9.52;5.28;;;15.60;99.90;;;;;;4972776;28;20118;-47
2023/06/27 01:46:08;;;;;;;10.25;5.60;;;15.60;99.90;;;;;;4972344;28;20041;-46
2023/06/27 01:48:35;;;;;;;9.02;5.70;;;15.60;99.90;;;;;;4936782;28;20433;-49
2023/06/27 01:51:01;;;;;;;8.90;5.00;;;15.60;99.90;;;;;;4957071;28;20394;-47
2023/06/27 01:53:27;;;;;;;8.50;5.93;;;15.60;99.90;;;;;;4956942;28;20031;-51
2023/06/27 01:55:52;;;;;;;11.43;5.75;;;15.50;99.90;;;;;;4953032;28;20502;-49
2023/06/27 01:58:18;;;;;;;8.63;5.65;;;15.50;99.90;;;;;;4952620;28;20093;-48
2023/06/27 02:00:44;;;;;;;8.35;5.95;;;15.50;99.90;;;;;;4953294;28;20039;-48
2023/06/27 02:03:09;;;;;;;10.40;5.70;;;15.50;99.90;;;;;;4953002;28;20035;-49
2023/06/27 02:05:35;;;;;;;9.25;6.35;;;15.50;99.90;;;;;;4952540;28;20089;-46
2023/06/27 02:08:01;;;;;;;8.55;5.57;;;15.50;99.90;;;;;;4952881;28;20155;-45
2023/06/27 02:10:26;;;;;;;8.90;5.55;;;15.40;99.90;;;;;;4952486;28;20054;-47
2023/06/27 02:12:52;;;;;;;9.40;6.45;;;15.40;99.90;;;;;;4960758;28;20041;-48
2023/06/27 02:15:17;;;;;;;13.40;6.05;;;15.40;99.90;;;;;;4951848;28;20183;-47
2023/06/27 02:17:43;;;;;;;10.07;6.40;;;15.40;99.90;;;;;;4952240;28;20058;-48
2023/06/27 02:20:09;;;;;;;9.70;6.40;;;15.40;99.90;;;;;;4935717;28;20402;-50
2023/06/27 02:22:35;;;;;;;9.35;6.72;;;15.30;99.90;;;;;;4952842;28;20458;-50
2023/06/27 02:25:00;;;;;;;11.88;6.57;;;15.30;99.90;;;;;;4952658;28;20040;-48
2023/06/27 02:27:26;;;;;;;12.20;6.63;;;15.30;99.90;;;;;;4935614;28;20055;-49
2023/06/27 02:29:52;;;;;;;10.48;6.60;;;15.20;99.90;;;;;;4971863;28;20205;-48
2023/06/27 02:32:17;;;;;;;9.18;6.47;;;15.20;99.90;;;;;;4972035;28;20050;-48
2023/06/27 02:34:43;;;;;;;13.07;7.18;;;15.20;99.90;;;;;;4971891;28;20050;-52
2023/06/27 02:37:09;;;;;;;9.63;6.45;;;15.20;99.90;;;;;;4966389;28;20103;-46
2023/06/27 02:39:34;;;;;;;11.13;6.88;;;15.10;99.90;;;;;;4952929;28;20054;-47
2023/06/27 02:42:00;;;;;;;11.07;7.07;;;15.10;99.90;;;;;;4952277;28;20074;-46
2023/06/27 02:44:26;;;;;;;10.68;6.93;;;15.10;99.90;;;;;;4952528;28;20046;-47
2023/06/27 02:46:51;;;;;;;10.55;7.30;;;15.10;99.90;;;;;;4951928;28;20043;-49
2023/06/27 02:49:17;;;;;;;10.10;6.18;;;15.10;99.90;;;;;;4952228;28;20043;-48
2023/06/27 02:51:42;;;;;;;10.57;6.68;;;15.10;99.90;;;;;;4935544;28;20448;-50
2023/06/27 02:54:08;;;;;;;10.60;7.68;;;15.10;99.90;;;;;;4952358;28;20047;-46
2023/06/27 02:56:34;;;;;;;13.43;6.97;;;15.10;99.90;;;;;;4952494;28;20486;-49
2023/06/27 02:58:59;;;;;;;13.57;7.10;;;15.10;99.90;;;;;;4952791;28;20031;-48
2023/06/27 03:01:25;;;;;;;12.23;7.45;;;15.00;99.90;;;;;;4952307;28;20483;-47
2023/06/27 03:03:51;;;;;;;10.32;7.07;;;15.00;99.90;;;;;;4968439;28;20038;-49
2023/06/27 03:06:19;;;;;;;10.57;6.65;;;15.00;99.90;;;;;;4971533;28;20038;-49
2023/06/27 03:08:44;;;;;;;11.25;7.22;;;15.00;99.90;;;;;;4936707;28;20475;-48
2023/06/27 03:11:10;;;;;;;13.43;7.40;;;14.90;99.90;;;;;;4951885;28;20051;-49
2023/06/27 03:13:36;;;;;;;12.25;7.80;;;14.90;99.90;;;;;;4952094;28;20483;-47
2023/06/27 03:16:02;;;;;;;15.07;7.80;;;14.90;99.90;;;;;;4951818;28;20031;-47
2023/06/27 03:18:27;;;;;;;12.77;8.00;;;14.90;99.90;;;;;;4952390;28;20047;-48
2023/06/27 03:20:53;;;;;;;13.25;8.07;;;14.90;99.90;;;;;;4952167;28;20123;-51
2023/06/27 03:23:19;;;;;;;12.05;8.18;;;14.90;99.90;;;;;;4952089;28;20114;-51
2023/06/27 03:25:44;;;;;;;13.32;8.75;;;14.90;99.90;;;;;;4952411;28;20126;-51
2023/06/27 03:28:10;;;;;;;10.98;7.68;;;14.90;99.90;;;;;;4952167;28;20047;-48
2023/06/27 03:30:37;;;;;;;11.43;7.80;;;14.90;99.90;;;;;;4934452;28;20387;-46
2023/06/27 03:33:02;;;;;;;13.73;8.15;;;14.90;99.90;;;;;;4959365;28;20049;-51
2023/06/27 03:35:28;;;;;;;12.35;8.07;;;15.00;99.90;;;;;;4958083;28;20035;-50
2023/06/27 03:37:54;;;;;;;14.10;9.52;;;15.00;99.90;;;;;;4954429;28;20529;-47
2023/06/27 03:40:19;;;;;;;12.05;9.13;;;15.00;99.90;;;;;;4966089;28;20046;-46
2023/06/27 03:42:45;;;;;;;13.75;8.93;;;15.00;99.90;;;;;;4974757;28;20035;-47
2023/06/27 03:45:11;;;;;;;12.70;9.30;;;14.90;99.90;;;;;;4975049;28;20031;-48
2023/06/27 03:47:37;;;;;;;14.48;9.80;;;15.00;99.90;;;;;;4959363;28;20399;-48
2023/06/27 03:50:04;;;;;;;15.55;9.48;;;15.00;99.90;;;;;;4964140;28;20046;-49
2023/06/27 03:52:29;;;;;;;16.63;9.63;;;14.90;99.90;;;;;;4974921;28;20042;-45
2023/06/27 03:54:55;;;;;;;16.42;9.80;;;15.00;99.90;;;;;;4975013;28;20497;-49
2023/06/27 03:57:20;;;;;;;14.27;9.57;;;15.00;99.90;;;;;;4974370;28;20133;-49
2023/06/27 03:59:46;;;;;;;13.07;9.25;;;15.00;99.90;;;;;;4939418;28;20043;-48
2023/06/27 04:02:12;;;;;;;13.32;9.15;;;15.00;99.90;;;;;;4955419;28;20054;-49
2023/06/27 04:04:37;;;;;;;14.68;9.15;;;15.10;99.90;;;;;;4965236;28;20118;-49
2023/06/27 04:07:03;;;;;;;13.73;8.85;;;15.10;99.90;;;;;;4974577;28;20051;-50
2023/06/27 04:09:29;;;;;;;15.02;9.32;;;15.10;99.90;;;;;;4974485;28;20027;-47
2023/06/27 04:11:54;;;;;;;15.80;9.25;;;15.10;99.90;;;;;;4974646;28;20035;-52
2023/06/27 04:14:20;;;;;;;14.25;9.07;;;15.20;99.90;;;;;;4937862;28;20513;-49
2023/06/27 04:16:46;;;;;;;14.07;9.00;;;15.20;99.90;;;;;;4954832;28;20356;-48
2023/06/27 04:19:12;;;;;;;15.75;9.00;;;15.30;99.90;;;;;;4955174;28;20447;-48
2023/06/27 04:21:37;;;;;;;13.93;8.85;;;15.30;99.90;;;;;;4954865;28;20046;-49
2023/06/27 04:24:03;;;;;;;13.52;9.07;;;15.40;99.90;;;;;;4954776;28;20521;-47
2023/06/27 04:26:31;;;;;;;14.05;9.43;;;15.40;99.90;;;;;;4954757;28;20047;-49
2023/06/27 04:28:56;;;;;;;12.00;7.78;;;15.40;99.90;;;;;;4966958;28;20482;-47
2023/06/27 04:31:22;;;;;;;14.60;9.05;;;15.50;99.90;;;;;;4974300;28;20035;-51
2023/06/27 04:33:48;;;;;;;16.13;8.80;;;15.50;99.90;;;;;;4959695;28;20483;-51
2023/06/27 04:36:20;;;;;;;15.98;8.95;;;15.60;99.90;;;;;;4954832;28;20120;-50
2023/06/27 04:38:48;;;;;;;13.80;8.90;;;15.60;99.90;;;;;;4954543;28;20051;-48
2023/06/27 04:41:14;;;;;;;14.32;9.07;;;15.70;99.90;;;;;;4953816;28;20105;-49
2023/06/27 04:43:39;;;;;;;16.63;9.18;;;15.70;99.90;;;;;;4954782;28;20051;-47
2023/06/27 04:46:05;;;;;;;15.55;9.20;;;15.70;99.90;;;;;;4957159;28;20035;-46
2023/06/27 04:48:31;;;;;;;13.68;8.80;;;15.80;99.90;;;;;;4973137;28;20185;-49
2023/06/27 04:50:57;;;;;;;15.65;9.27;;;15.80;99.90;;;;;;4972111;28;20106;-49
2023/06/27 04:53:23;;;;;;;20.00;9.65;;;15.90;99.90;;;;;;4954534;28;20353;-51
2023/06/27 04:55:50;;;;;;;16.00;8.98;;;15.90;99.90;;;;;;4954386;28;20043;-47
2023/06/27 04:58:16;;;;;;;18.77;10.00;;;15.90;99.90;;;;;;4954623;28;20101;-52
2023/06/27 05:00:44;;;;;;;16.40;8.98;;;16.00;99.90;;;;;;4954437;28;20157;-47
2023/06/27 05:03:10;;;;;;;14.05;8.45;;;16.00;99.90;;;;;;4954523;28;20504;-47
2023/06/27 05:05:35;;;;;;;13.77;8.93;;;16.00;99.90;;;;;;4963609;28;20043;-47
2023/06/27 05:08:03;;;;;;;16.50;9.57;;;16.00;99.90;;;;;;4954022;28;20070;-46
2023/06/27 05:10:32;;;;;;;13.20;8.45;;;16.10;99.90;;;;;;4953926;28;20035;-48
2023/06/27 05:12:59;;;;;;;13.82;9.27;;;16.10;99.90;;;;;;4954094;28;20126;-48
2023/06/27 05:15:24;;;;;;;16.10;9.10;;;16.20;99.90;;;;;;4953792;28;20039;-48
2023/06/27 05:18:15;;;;;;;14.77;8.73;;;16.30;99.90;;;;;;4953462;28;20126;-48
2023/06/27 05:20:44;;;;;;;13.02;8.75;;;16.60;99.90;;;;;;4953832;28;20499;-49
2023/06/27 05:23:10;;;;;;;13.05;8.77;;;16.40;99.90;;;;;;4953987;28;20043;-48
2023/06/27 05:25:36;;;;;;;14.90;8.43;;;16.50;99.90;;;;;;4953861;28;20533;-47
2023/06/27 05:28:02;;;;;;;14.98;7.50;;;16.60;99.90;;;;;;4961540;28;20053;-48
2023/06/27 05:30:29;;;;;;;13.85;6.53;;;16.70;99.90;;;;;;4955078;28;20475;-48
2023/06/27 05:32:55;;;;;;;14.48;6.50;;;16.80;99.90;;;;;;4953675;28;20043;-48
2023/06/27 05:35:22;;;;;;;12.73;6.47;;;16.90;99.90;;;;;;4953780;28;20475;-46
2023/06/27 05:37:48;;;;;;;13.52;6.93;;;17.10;99.90;;;;;;4920264;28;20086;-48
2023/06/27 05:40:14;;;;;;;11.07;5.75;;;17.20;99.90;;;;;;4953143;28;20078;-47
2023/06/27 05:42:40;;;;;;;11.48;5.35;;;17.30;99.90;;;;;;4953430;28;20045;-50
2023/06/27 05:45:06;;;;;;;9.32;5.13;;;17.50;99.90;;;;;;4936484;28;20091;-50
2023/06/27 05:47:32;;;;;;;12.38;5.68;;;17.60;99.90;;;;;;4952843;28;20035;-49
2023/06/27 05:49:58;;;;;;;9.27;4.72;;;17.70;99.90;;;;;;4953059;28;20055;-48
2023/06/27 05:52:23;;;;;;;9.63;4.97;;;17.90;99.90;;;;;;4953560;28;20039;-47
2023/06/27 05:54:52;;;;;;;12.98;4.28;;;18.00;99.90;;;;;;4953171;28;20054;-49
2023/06/27 05:57:18;;;;;;;8.70;3.55;;;18.20;99.90;;;;;;4935983;28;20048;-52
2023/06/27 05:59:44;;;;;;;7.93;2.45;;;18.30;99.90;;;;;;4951669;28;20114;-50
2023/06/27 06:02:10;;;;;;;8.82;2.28;;;18.50;99.90;;;;;;4919253;28;20470;-51
2023/06/27 06:04:35;;;;;;;6.72;1.50;;;18.70;99.90;;;;;;4935803;28;20126;-47
2023/06/27 06:07:03;;;;;;;6.10;1.45;;;18.80;99.90;;;;;;4953210;28;20031;-47
2023/06/27 06:09:30;;;;;;;6.10;1.40;;;18.90;99.90;;;;;;4951701;28;20505;-49
2023/06/27 06:11:56;;;;;;;5.18;1.13;;;19.00;99.90;;;;;;4970571;28;20034;-49
2023/06/27 06:14:22;;;;;;;4.97;1.10;;;19.10;99.90;;;;;;4972555;28;20039;-48
2023/06/27 06:16:48;;;;;;;5.97;1.38;;;19.20;99.90;;;;;;4972044;28;20143;-48
2023/06/27 06:19:14;;;;;;;5.80;1.35;;;19.30;99.90;;;;;;4963470;28;20082;-48
2023/06/27 06:21:40;;;;;;;6.72;1.52;;;19.40;99.90;;;;;;4966251;28;20117;-51
2023/06/27 06:24:08;;;;;;;6.75;1.15;;;19.50;99.90;;;;;;4961118;28;20166;-51
2023/06/27 06:26:37;;;;;;;5.40;1.15;;;19.50;99.90;;;;;;4952965;28;20513;-51
2023/06/27 06:29:04;;;;;;;4.63;1.13;;;19.60;99.90;;;;;;4952803;28;20046;-48
2023/06/27 06:31:30;;;;;;;8.00;1.40;;;19.60;99.90;;;;;;4952763;28;20039;-49
2023/06/27 06:33:57;;;;;;;6.90;1.27;;;19.60;99.90;;;;;;4935693;28;20170;-47
2023/06/27 06:36:23;;;;;;;5.75;1.10;;;19.50;99.90;;;;;;4952688;28;20182;-49
2023/06/27 06:38:49;;;;;;;7.45;1.48;;;19.50;99.90;;;;;;4952592;28;20035;-49
2023/06/27 06:41:15;;;;;;;6.13;1.08;;;19.50;99.90;;;;;;4952649;28;20051;-48
2023/06/27 06:43:41;;;;;;;4.25;1.00;;;19.50;99.90;;;;;;4952709;28;20043;-50
2023/06/27 06:46:07;;;;;;;3.72;1.08;;;19.40;99.90;;;;;;4967863;28;20042;-48
2023/06/27 06:48:32;;;;;;;4.30;1.10;;;19.40;99.90;;;;;;4971309;28;20109;-49
2023/06/27 06:50:58;;;;;;;5.65;1.20;;;19.40;99.90;;;;;;4971886;28;20046;-48
2023/06/27 06:53:24;;;;;;;5.50;1.30;;;19.40;99.90;;;;;;4965605;28;20039;-46
2023/06/27 06:55:50;;;;;;;5.72;0.98;;;19.40;99.90;;;;;;4952707;28;20045;-50
2023/06/27 06:58:16;;;;;;;4.05;0.90;;;19.50;99.90;;;;;;4952646;28;20043;-48
2023/06/27 07:00:42;;;;;;;5.22;1.10;;;19.50;99.90;;;;;;4952724;28;20051;-47
2023/06/27 07:03:09;;;;;;;5.28;1.00;;;19.50;99.90;;;;;;4961010;28;20042;-49
2023/06/27 07:05:35;;;;;;;6.05;1.13;;;19.50;99.90;;;;;;4971106;28;20042;-51
2023/06/27 07:08:05;;;;;;;4.32;0.98;;;19.50;99.90;;;;;;4971679;28;20597;-46
2023/06/27 07:10:31;;;;;;;6.45;1.20;;;19.60;99.90;;;;;;4961781;28;20531;-48
2023/06/27 07:12:59;;;;;;;3.42;0.80;;;19.60;99.90;;;;;;4938975;28;20039;-49
2023/06/27 07:15:26;;;;;;;6.95;1.30;;;19.60;99.90;;;;;;4957837;28;20180;-51
2023/06/27 07:17:52;;;;;;;4.28;1.15;;;19.70;99.90;;;;;;4955617;28;20067;-50
2023/06/27 07:20:20;;;;;;;6.10;1.00;;;19.70;99.90;;;;;;4956213;28;20050;-47
2023/06/27 07:22:46;;;;;;;6.45;1.08;;;19.70;99.90;;;;;;4955757;28;20060;-49
2023/06/27 07:25:12;;;;;;;5.68;1.33;;;19.70;99.90;;;;;;4955988;28;20037;-47
2023/06/27 07:27:38;;;;;;;5.78;1.13;;;19.70;99.90;;;;;;4960196;28;20110;-48
2023/06/27 07:30:04;;;;;;;5.15;0.93;;;19.70;99.90;;;;;;4975200;28;20038;-47
2023/06/27 07:32:29;;;;;;;5.55;1.00;;;19.70;99.90;;;;;;4975368;28;20070;-49
2023/06/27 07:34:55;;;;;;;5.97;1.40;;;19.60;99.90;;;;;;4975106;28;20125;-50
2023/06/27 07:37:21;;;;;;;5.82;1.45;;;19.60;99.90;;;;;;4974947;28;20462;-49
2023/06/27 07:39:46;;;;;;;6.32;1.15;;;19.60;99.90;;;;;;4975187;28;20084;-48
2023/06/27 07:42:12;;;;;;;7.15;1.30;;;19.60;99.90;;;;;;4975039;28;20050;-49
2023/06/27 07:44:38;;;;;;;7.13;1.02;;;19.70;99.90;;;;;;4970883;28;20038;-47
2023/06/27 07:47:03;;;;;;;6.00;1.20;;;19.80;99.90;;;;;;4974533;28;20051;-48
2023/06/27 07:49:31;;;;;;;5.35;1.25;;;19.80;99.90;;;;;;4939717;28;20627;-49
2023/06/27 07:51:57;;;;;;;4.30;1.02;;;19.80;99.90;;;;;;4971902;28;20161;-46
2023/06/27 07:54:26;;;;;;;6.75;1.00;;;19.90;99.90;;;;;;4974834;28;20114;-48
2023/06/27 07:56:54;;;;;;;6.90;1.27;;;20.00;99.90;;;;;;4974838;28;20486;-48
2023/06/27 07:59:20;;;;;;;3.72;1.00;;;20.00;99.90;;;;;;4957408;28;20035;-49
2023/06/27 08:01:46;;;;;;;3.85;1.02;;;20.00;99.90;;;;;;4970810;28;20430;-46
2023/06/27 08:04:12;;;;;;;8.02;1.45;;;20.10;99.90;;;;;;4962660;28;20078;-48
2023/06/27 08:06:37;;;;;;;5.55;1.30;;;20.10;99.90;;;;;;4937998;28;20099;-49
2023/06/27 08:09:03;;;;;;;3.35;1.00;;;20.20;99.90;;;;;;4955268;28;20078;-49
2023/06/27 08:11:29;;;;;;;5.90;1.00;;;20.20;99.90;;;;;;4938200;28;20040;-53
2023/06/27 08:13:55;;;;;;;3.75;0.98;;;20.30;99.90;;;;;;4954817;28;20043;-50
2023/06/27 08:16:20;;;;;;;3.45;1.00;;;20.30;99.90;;;;;;4954409;28;20384;-48
2023/06/27 08:18:46;;;;;;;7.05;1.10;;;20.30;99.90;;;;;;4955315;28;20173;-48
2023/06/27 08:21:12;;;;;;;7.00;1.38;;;20.30;99.90;;;;;;4955216;28;20047;-47
2023/06/27 08:23:38;;;;;;;6.55;1.00;;;20.30;99.90;;;;;;4954256;28;20043;-46
2023/06/27 08:26:03;;;;;;;5.13;1.17;;;20.30;99.30;;;;;;4955041;28;20047;-51
2023/06/27 08:28:29;;;;;;;3.40;0.80;;;20.30;99.40;;;;;;4955321;28;20368;-51
2023/06/27 08:30:56;;;;;;;5.20;1.20;;;20.30;99.40;;;;;;4955220;28;20490;-49
2023/06/27 08:33:22;;;;;;;8.02;1.20;;;20.40;99.10;;;;;;4954916;28;20039;-48
2023/06/27 08:35:49;;;;;;;5.07;1.08;;;20.50;99.20;;;;;;4955179;28;20043;-51
2023/06/27 08:38:14;;;;;;;4.68;0.80;;;20.60;98.90;;;;;;4954971;28;20042;-48
2023/06/27 08:40:42;;;;;;;4.38;1.00;;;20.70;98.80;;;;;;4955020;28;20051;-51
2023/06/27 08:43:10;;;;;;;3.70;1.08;;;20.60;98.10;;;;;;4954761;28;20054;-50
2023/06/27 08:45:37;;;;;;;6.00;0.90;;;20.70;98.20;;;;;;4962690;28;20047;-50
2023/06/27 08:48:06;;;;;;;4.53;1.25;;;20.80;98.50;;;;;;4973007;28;20482;-49
2023/06/27 08:50:40;;;;;;;3.83;0.90;;;20.80;98.30;;;;;;4974096;28;20125;-47
2023/06/27 08:53:08;;;;;;;4.05;1.20;;;20.80;98.20;;;;;;4938110;28;20113;-51
2023/06/27 08:55:52;;;;;;;5.55;0.90;;;20.80;98.40;;;;;;4937404;28;20047;-52
2023/06/27 08:58:24;;;;;;;4.85;0.90;;;20.90;98.20;;;;;;4954863;28;20394;-49
2023/06/27 09:00:52;;;;;;;7.07;0.80;;;20.90;98.00;;;;;;4937190;28;20046;-49
2023/06/27 09:03:19;;;;;;;6.25;1.00;;;20.90;97.80;;;;;;4921345;28;20122;-50
2023/06/27 09:05:47;;;;;;;6.38;1.20;;;20.80;97.80;;;;;;4954257;28;20039;-51
2023/06/27 09:08:13;;;;;;;5.22;1.27;;;20.80;98.20;;;;;;4960711;28;20113;-49
2023/06/27 09:10:44;;;;;;;4.97;1.13;;;20.90;97.80;;;;;;4972119;28;20051;-51
2023/06/27 09:13:11;;;;;;;5.68;1.02;;;20.90;98.00;;;;;;4953318;28;20035;-51
2023/06/27 09:15:36;;;;;;;4.30;0.85;;;20.90;97.80;;;;;;4938002;28;20074;-49
2023/06/27 09:18:02;;;;;;;5.50;1.20;;;20.90;97.50;;;;;;4962355;28;20180;-50
2023/06/27 09:20:28;;;;;;;5.30;1.05;;;21.00;97.50;;;;;;4937679;28;20051;-50
2023/06/27 09:22:57;;;;;;;4.88;0.82;;;21.10;97.60;;;;;;4966429;28;20049;-48
2023/06/27 09:25:24;;;;;;;5.20;1.00;;;21.20;97.40;;;;;;4973057;28;20042;-46
2023/06/27 09:27:50;;;;;;;6.90;1.10;;;21.40;96.80;;;;;;4973340;28;20166;-47
2023/06/27 09:30:16;;;;;;;6.05;1.00;;;21.40;96.70;;;;;;4973384;28;20182;-52
2023/06/27 09:32:52;;;;;;;6.07;0.85;;;21.50;96.70;;;;;;4973084;28;20047;-50
2023/06/27 09:35:20;;;;;;;4.63;0.90;;;21.50;96.50;;;;;;4967973;28;20618;-49
2023/06/27 09:37:45;;;;;;;5.97;0.90;;;21.70;96.70;;;;;;4959056;28;20043;-49
2023/06/27 09:40:19;;;;;;;5.43;1.10;;;21.80;96.10;;;;;;4954020;28;20039;-49
2023/06/27 09:42:51;;;;;;;;;;;22.00;95.40;;;;;;4954966;28;20043;-50
2023/06/27 09:45:18;;;;;;;5.93;1.00;;;22.10;95.70;;;;;;4952216;28;19922;-50
2023/06/27 09:47:44;;;;;;;7.25;1.10;;;22.30;95.90;;;;;;4920080;28;20051;-48
2023/06/27 09:50:10;;;;;;;4.57;1.13;;;22.50;95.90;;;;;;4953374;28;20051;-49
2023/06/27 09:52:35;;;;;;;5.10;1.00;;;22.70;95.30;;;;;;4953792;28;20118;-48
2023/06/27 09:55:02;;;;;;;5.07;0.80;;;22.80;94.90;;;;;;4953116;28;20566;-53
2023/06/27 09:57:30;;;;;;;4.47;1.10;;;22.80;95.00;;;;;;4935388;28;20055;-49
2023/06/27 09:59:59;;;;;;;6.22;1.00;;;22.80;94.80;;;;;;4953744;28;20043;-51
2023/06/27 10:02:32;;;;;;;5.43;1.00;;;22.80;94.60;;;;;;4955397;28;20170;-46
2023/06/27 10:04:58;;;;;;;5.00;0.85;;;22.70;95.20;;;;;;4972614;28;20101;-48
2023/06/27 10:07:24;;;;;;;6.55;1.08;;;22.80;95.20;;;;;;4972399;28;20478;-50
2023/06/27 10:09:50;;;;;;;5.25;1.25;;;22.80;94.80;;;;;;4953350;28;20035;-50
2023/06/27 10:12:17;;;;;;;6.40;0.80;;;22.80;94.90;;;;;;4953440;28;20104;-50
2023/06/27 10:14:47;;;;;;;6.55;0.93;;;22.90;94.90;;;;;;4936357;28;20167;-50
2023/06/27 10:17:18;;;;;;;5.85;0.98;;;22.90;94.80;;;;;;4969421;28;20441;-49
2023/06/27 10:19:48;;;;;;;3.70;0.88;;;23.00;94.80;;;;;;4972526;28;20051;-48
2023/06/27 10:22:18;;;;;;;4.97;0.90;;;23.00;94.80;;;;;;4972295;28;20482;-48
2023/06/27 10:24:48;;;;;;;7.07;1.27;;;23.20;94.90;;;;;;4972447;28;20406;-49
2023/06/27 10:27:21;;;;;;;7.13;0.90;;;23.40;94.80;;;;;;4957405;28;20474;-49
2023/06/27 10:29:47;;;;;;;4.72;0.85;;;23.50;94.20;;;;;;4967739;28;20375;-49
2023/06/27 10:32:18;;;;;;;6.40;1.00;;;23.60;94.40;;;;;;4971874;28;20312;-48
2023/06/27 10:34:45;;;;;;;9.90;1.30;;;23.70;94.30;;;;;;4936625;28;20074;-49
2023/06/27 10:37:31;;;;;;;3.72;0.90;;;23.90;94.20;;;;;;4952642;28;20039;-49
2023/06/27 10:40:00;;;;;;;6.88;1.00;;;24.00;94.00;;;;;;4959893;28;20047;-51
2023/06/27 10:42:28;;;;;;;5.53;0.80;;;24.00;93.90;;;;;;4972361;28;20038;-48
2023/06/27 10:44:54;;;;;;;3.75;0.77;;;23.90;93.10;;;;;;4955256;28;20098;-50
2023/06/27 10:47:23;;;;;;;3.83;0.80;;;23.80;93.10;;;;;;4952077;28;20043;-47
2023/06/27 10:49:52;;;;;;;5.45;1.00;;;23.70;92.50;;;;;;4952514;28;20558;-47
2023/06/27 10:52:20;;;;;;;4.55;1.13;;;23.50;92.60;;;;;;4952390;28;20050;-46
2023/06/27 10:54:48;;;;;;;6.63;1.10;;;23.30;93.00;;;;;;4952818;28;20505;-47
2023/06/27 10:57:16;;;;;;;8.52;0.95;;;23.20;93.70;;;;;;4952322;28;20050;-47
2023/06/27 10:59:45;;;;;;;5.32;1.00;;;23.10;93.80;;;;;;4952681;28;20387;-51
2023/06/27 11:02:12;;;;;;;4.13;1.00;;;23.10;94.00;;;;;;4967095;28;20046;-50
2023/06/27 11:04:42;;;;;;;5.55;1.10;;;23.00;93.90;;;;;;4972040;28;20139;-48
2023/06/27 11:07:13;;;;;;;6.07;1.00;;;22.90;94.00;;;;;;4971979;28;20045;-48
2023/06/27 11:09:54;;;;;;;3.53;0.93;;;23.00;93.70;;;;;;4971843;28;20494;-50
2023/06/27 11:12:21;;;;;;;7.88;1.08;;;23.10;93.70;;;;;;4937259;28;20569;-50
2023/06/27 11:14:51;;;;;;;3.50;1.10;;;23.30;93.50;;;;;;4971313;28;20098;-48
2023/06/27 11:17:18;;;;;;;5.57;0.80;;;23.40;93.70;;;;;;4970770;28;20038;-48
2023/06/27 11:19:44;;;;;;;6.82;0.90;;;23.60;93.30;;;;;;4952387;28;20102;-49
2023/06/27 11:22:10;;;;;;;3.60;0.85;;;23.80;93.70;;;;;;4952608;28;20043;-51
2023/06/27 11:24:38;;;;;;;5.13;0.98;;;24.00;93.30;;;;;;4952369;28;20122;-48
2023/06/27 11:27:06;;;;;;;4.47;0.80;;;24.20;93.00;;;;;;4952378;28;20051;-51
2023/06/27 11:29:33;;;;;;;5.07;0.98;;;24.10;92.90;;;;;;4953512;28;20039;-51
2023/06/27 11:31:59;;;;;;;7.55;1.10;;;24.00;92.60;;;;;;4935246;28;20039;-49
2023/06/27 11:34:25;;;;;;;3.90;0.90;;;23.90;92.20;;;;;;4952343;28;20458;-50
2023/06/27 11:36:52;;;;;;;5.80;0.88;;;23.90;92.60;;;;;;4934800;28;20402;-52
2023/06/27 11:39:18;;;;;;;3.75;0.80;;;23.90;91.90;;;;;;4952208;28;20050;-49
2023/06/27 11:41:45;;;;;;;6.32;1.10;;;23.80;92.00;;;;;;4953938;28;20051;-51
2023/06/27 11:44:16;;;;;;;4.07;0.88;;;23.80;91.30;;;;;;4961172;28;20035;-48
2023/06/27 11:46:53;;;;;;;3.50;0.70;;;23.80;91.60;;;;;;4951916;28;20039;-52
2023/06/27 11:49:24;;;;;;;4.68;0.82;;;23.80;91.30;;;;;;4951891;28;20059;-50
2023/06/27 11:51:50;;;;;;;5.68;0.90;;;23.70;91.30;;;;;;4952368;28;20391;-53
2023/06/27 11:54:19;;;;;;;4.93;1.20;;;23.60;91.10;;;;;;4952489;28;20043;-49
2023/06/27 11:56:45;;;;;;;1.85;0.50;;;23.70;91.20;;;;;;4952466;28;20055;-50
2023/06/27 11:59:13;;;;;;;16.80;1.55;;;24.00;91.30;;;;;;4954946;28;20043;-48
2023/06/27 12:01:44;;;;;;;6.88;1.02;;;24.30;90.90;;;;;;4955575;28;20047;-49
2023/06/27 12:04:17;;;;;;;9.20;1.20;;;24.60;91.10;;;;;;4955638;28;20483;-52
2023/06/27 12:06:44;;;;;;;7.07;1.17;;;24.90;90.10;;;;;;4955185;28;20126;-50
2023/06/27 12:09:27;;;;;;;10.50;1.30;;;24.90;89.90;;;;;;4954197;28;20364;-50
2023/06/27 12:11:58;;;;;;;6.32;1.40;;;24.90;87.40;;;;;;4969857;28;20122;-48
2023/06/27 12:14:25;;;;;;;6.13;1.00;;;24.80;89.90;;;;;;4965636;28;20061;-48
2023/06/27 12:16:52;;;;;;;7.55;0.80;;;24.60;88.80;;;;;;4957968;28;20039;-50
2023/06/27 12:19:19;;;;;;;4.60;1.00;;;24.50;90.10;;;;;;4955605;28;20383;-48
2023/06/27 12:21:45;;;;;;;4.18;0.98;;;24.50;90.00;;;;;;4938075;28;20054;-51
2023/06/27 12:24:11;;;;;;;5.43;0.70;;;24.40;89.80;;;;;;4955518;28;20475;-45
2023/06/27 12:26:37;;;;;;;4.45;0.80;;;24.30;89.10;;;;;;4954920;28;20050;-50
2023/06/27 12:29:04;;;;;;;9.52;1.17;;;24.30;89.90;;;;;;4955310;28;20043;-51
2023/06/27 12:31:30;;;;;;;3.22;0.70;;;24.20;89.70;;;;;;4955073;28;20118;-50
2023/06/27 12:33:59;;;;;;;5.30;0.82;;;24.40;90.20;;;;;;4922219;28;20054;-51
2023/06/27 12:36:26;;;;;;;4.88;0.80;;;24.50;90.30;;;;;;4937593;28;20032;-47
2023/06/27 12:38:53;;;;;;;4.13;1.10;;;24.60;90.30;;;;;;4955168;28;20043;-51
2023/06/27 12:41:20;;;;;;;7.15;1.30;;;24.50;90.30;;;;;;4955113;28;20110;-51
2023/06/27 12:43:46;;;;;;;7.93;1.17;;;24.40;90.70;;;;;;4955010;28;20487;-50